sensor_id;sensor_type;location;lat;lon;timestamp;pressure;altitude;pressure_sealevel;temperature;humidity
78168;BME280;67410;42.698;23.378;2023-04-08T16:32:12;95663.72;;;8.88;65.12
78168;BME280;67410;42.698;23.378;2023-04-08T16:34:38;95665.34;;;9.09;65.95
78168;BME280;67410;42.698;23.378;2023-04-08T16:37:04;95674.44;;;9.20;64.98
78168;BME280;67410;42.698;23.378;2023-04-08T16:39:30;95671.41;;;9.09;65.56
78168;BME280;67410;42.698;23.378;2023-04-08T16:41:56;95677.28;;;8.92;66.59
78168;BME280;67410;42.698;23.378;2023-04-08T16:44:23;95674.84;;;8.90;65.99
78168;BME280;67410;42.698;23.378;2023-04-08T16:46:49;95683.16;;;9.00;67.45
78168;BME280;67410;42.698;23.378;2023-04-08T16:49:15;95668.38;;;9.06;65.72
78168;BME280;67410;42.698;23.378;2023-04-08T16:51:41;95671.81;;;9.13;65.79
78168;BME280;67410;42.698;23.378;2023-04-08T16:54:07;95678.28;;;9.04;65.69
78168;BME280;67410;42.698;23.378;2023-04-08T16:56:34;95684.13;;;8.86;65.98
78168;BME280;67410;42.698;23.378;2023-04-08T16:59:00;95685.97;;;8.92;67.12
78168;BME280;67410;42.698;23.378;2023-04-08T17:01:26;95691.81;;;9.14;68.38
78168;BME280;67410;42.698;23.378;2023-04-08T17:03:52;95683.53;;;9.10;69.22
78168;BME280;67410;42.698;23.378;2023-04-08T17:06:18;95693.03;;;9.11;71.74
78168;BME280;67410;42.698;23.378;2023-04-08T17:08:44;95688.56;;;9.05;72.69
78168;BME280;67410;42.698;23.378;2023-04-08T17:11:14;95705.34;;;9.11;74.73
78168;BME280;67410;42.698;23.378;2023-04-08T17:13:42;95704.13;;;9.07;73.72
78168;BME280;67410;42.698;23.378;2023-04-08T17:16:13;95702.91;;;8.90;72.69
78168;BME280;67410;42.698;23.378;2023-04-08T17:18:39;95719.47;;;8.90;72.66
78168;BME280;67410;42.698;23.378;2023-04-08T17:21:06;95723.50;;;8.79;73.35
78168;BME280;67410;42.698;23.378;2023-04-08T17:23:32;95730.59;;;8.86;70.83
78168;BME280;67410;42.698;23.378;2023-04-08T17:25:59;95732.38;;;8.72;70.17
78168;BME280;67410;42.698;23.378;2023-04-08T17:28:25;95736.22;;;8.76;69.77
78168;BME280;67410;42.698;23.378;2023-04-08T17:30:51;95734.19;;;8.71;71.79
78168;BME280;67410;42.698;23.378;2023-04-08T17:33:17;95742.28;;;8.70;71.71
78168;BME280;67410;42.698;23.378;2023-04-08T17:35:43;95750.16;;;8.70;70.49
78168;BME280;67410;42.698;23.378;2023-04-08T17:38:09;95744.47;;;8.66;71.60
78168;BME280;67410;42.698;23.378;2023-04-08T17:40:35;95768.53;;;8.83;75.86
78168;BME280;67410;42.698;23.378;2023-04-08T17:43:01;95764.50;;;8.74;73.95
78168;BME280;67410;42.698;23.378;2023-04-08T17:45:28;95758.56;;;8.52;72.30
78168;BME280;67410;42.698;23.378;2023-04-08T17:47:54;95764.59;;;8.53;73.24
78168;BME280;67410;42.698;23.378;2023-04-08T17:50:24;95777.59;;;8.67;75.19
78168;BME280;67410;42.698;23.378;2023-04-08T17:52:50;95781.38;;;8.58;73.77
78168;BME280;67410;42.698;23.378;2023-04-08T17:55:16;95790.84;;;8.53;75.69
78168;BME280;67410;42.698;23.378;2023-04-08T17:57:42;95793.47;;;8.53;76.81
78168;BME280;67410;42.698;23.378;2023-04-08T18:00:09;95798.50;;;8.41;77.78
78168;BME280;67410;42.698;23.378;2023-04-08T18:02:35;95801.69;;;8.36;77.17
78168;BME280;67410;42.698;23.378;2023-04-08T18:05:02;95804.50;;;8.35;79.70
78168;BME280;67410;42.698;23.378;2023-04-08T18:07:28;95796.56;;;8.28;79.21
78168;BME280;67410;42.698;23.378;2023-04-08T18:09:54;95806.56;;;8.11;80.08
78168;BME280;67410;42.698;23.378;2023-04-08T18:12:21;95809.28;;;7.97;81.30
78168;BME280;67410;42.698;23.378;2023-04-08T18:14:47;95809.34;;;8.03;81.16
78168;BME280;67410;42.698;23.378;2023-04-08T18:17:13;95821.69;;;8.09;80.89
78168;BME280;67410;42.698;23.378;2023-04-08T18:19:39;95811.56;;;8.06;81.44
78168;BME280;67410;42.698;23.378;2023-04-08T18:22:05;95814.81;;;8.08;81.41
78168;BME280;67410;42.698;23.378;2023-04-08T18:24:31;95817.00;;;8.05;81.97
78168;BME280;67410;42.698;23.378;2023-04-08T18:26:57;95821.19;;;7.93;82.85
78168;BME280;67410;42.698;23.378;2023-04-08T18:29:23;95820.13;;;7.87;83.22
78168;BME280;67410;42.698;23.378;2023-04-08T18:31:50;95825.31;;;7.80;83.96
78168;BME280;67410;42.698;23.378;2023-04-08T18:34:16;95829.25;;;7.70;84.08
78168;BME280;67410;42.698;23.378;2023-04-08T18:36:43;95827.50;;;7.77;83.46
78168;BME280;67410;42.698;23.378;2023-04-08T18:39:09;95834.22;;;7.86;83.77
78168;BME280;67410;42.698;23.378;2023-04-08T18:41:36;95834.00;;;7.81;84.40
78168;BME280;67410;42.698;23.378;2023-04-08T18:44:03;95826.69;;;7.76;84.48
78168;BME280;67410;42.698;23.378;2023-04-08T18:46:29;95836.69;;;7.66;84.73
78168;BME280;67410;42.698;23.378;2023-04-08T18:48:56;95843.94;;;7.64;85.12
78168;BME280;67410;42.698;23.378;2023-04-08T18:51:22;95831.59;;;7.58;83.86
78168;BME280;67410;42.698;23.378;2023-04-08T18:53:48;95833.13;;;7.74;83.41
78168;BME280;67410;42.698;23.378;2023-04-08T18:56:15;95834.94;;;7.73;82.71
78168;BME280;67410;42.698;23.378;2023-04-08T18:58:42;95834.22;;;7.86;82.33
78168;BME280;67410;42.698;23.378;2023-04-08T19:01:09;95841.22;;;7.79;83.20
78168;BME280;67410;42.698;23.378;2023-04-08T19:03:35;95843.50;;;7.61;83.08
78168;BME280;67410;42.698;23.378;2023-04-08T19:06:09;95838.69;;;7.43;84.34
78168;BME280;67410;42.698;23.378;2023-04-08T19:08:36;95843.13;;;7.42;84.92
78168;BME280;67410;42.698;23.378;2023-04-08T19:11:02;95839.88;;;7.40;83.68
78168;BME280;67410;42.698;23.378;2023-04-08T19:13:29;95848.50;;;7.34;84.72
78168;BME280;67410;42.698;23.378;2023-04-08T19:15:55;95857.63;;;7.38;84.60
78168;BME280;67410;42.698;23.378;2023-04-08T19:18:22;95854.41;;;7.43;84.18
78168;BME280;67410;42.698;23.378;2023-04-08T19:20:48;95864.97;;;7.28;86.11
78168;BME280;67410;42.698;23.378;2023-04-08T19:23:14;95862.81;;;7.17;85.85
78168;BME280;67410;42.698;23.378;2023-04-08T19:25:41;95867.50;;;7.00;86.48
78168;BME280;67410;42.698;23.378;2023-04-08T19:28:07;95871.81;;;7.08;86.59
78168;BME280;67410;42.698;23.378;2023-04-08T19:30:38;95872.38;;;7.25;85.70
78168;BME280;67410;42.698;23.378;2023-04-08T19:33:04;95866.34;;;7.45;85.22
78168;BME280;67410;42.698;23.378;2023-04-08T19:35:30;95864.03;;;7.36;84.84
78168;BME280;67410;42.698;23.378;2023-04-08T19:37:56;95881.94;;;7.54;84.79
